createdAt,value
2022-10-01T00:00:40.595Z,59.83
2022-10-01T00:01:42.283Z,60.13
2022-10-01T00:02:44.161Z,60.02
2022-10-01T00:03:47.707Z,59.94
2022-10-01T00:04:50.901Z,60.39
2022-10-01T00:06:03.140Z,60.39
2022-10-01T00:07:09.606Z,59.87
2022-10-01T00:08:13.707Z,59.86
2022-10-01T00:09:16.113Z,59.57
2022-10-01T00:10:18.238Z,59.56
2022-10-01T00:11:25.589Z,59.20
2022-10-01T00:12:27.293Z,59.45
2022-10-01T00:13:30.621Z,58.21
2022-10-01T00:14:32.410Z,58.77
2022-10-01T00:15:34.267Z,59.00
2022-10-01T00:16:36.064Z,58.11
2022-10-01T00:17:37.897Z,58.23
2022-10-01T00:18:41.653Z,58.93
2022-10-01T00:19:43.335Z,58.74
2022-10-01T00:20:45.010Z,59.44
2022-10-01T00:21:46.658Z,59.22
2022-10-01T00:22:48.400Z,58.88
2022-10-01T00:24:01.345Z,58.94
2022-10-01T00:25:04.666Z,59.26
2022-10-01T00:26:27.383Z,59.46
2022-10-01T00:27:29.651Z,58.91
2022-10-01T00:28:31.351Z,58.45
2022-10-01T00:29:33.032Z,58.49
2022-10-01T00:30:39.579Z,58.72
2022-10-01T00:31:42.653Z,58.68
2022-10-01T00:32:44.410Z,59.61
2022-10-01T00:33:46.094Z,60.04
2022-10-01T00:34:49.092Z,59.79
2022-10-01T00:35:54.627Z,60.08
2022-10-01T00:36:56.310Z,59.84
2022-10-01T00:37:58.110Z,59.20
2022-10-01T00:39:02.657Z,58.93
2022-10-01T00:40:05.837Z,58.94
2022-10-01T00:41:08.859Z,59.25
2022-10-01T00:42:22.572Z,58.98
2022-10-01T00:43:35.303Z,59.44
2022-10-01T00:44:37.577Z,59.98
2022-10-01T00:45:39.672Z,60.36
2022-10-01T00:46:45.299Z,60.82
2022-10-01T00:47:58.076Z,61.38
2022-10-01T00:49:07.347Z,61.26
2022-10-01T00:50:30.496Z,61.62
2022-10-01T00:51:38.629Z,61.09
2022-10-01T00:52:42.031Z,61.87
2022-10-01T00:53:45.130Z,62.12
2022-10-01T00:55:02.661Z,61.91
2022-10-01T00:56:06.330Z,61.26
2022-10-01T00:57:08.817Z,61.63
2022-10-01T00:58:14.433Z,62.03
2022-10-01T00:59:16.967Z,62.08
2022-10-01T01:00:18.892Z,62.08
2022-10-01T01:01:21.201Z,61.91
2022-10-01T01:02:23.031Z,61.79
2022-10-01T01:03:25.263Z,61.42
2022-10-01T01:04:28.009Z,61.53
2022-10-01T01:05:29.733Z,61.93
2022-10-01T01:06:31.390Z,62.34
2022-10-01T01:07:34.146Z,62.11
2022-10-01T01:08:35.912Z,62.13
2022-10-01T01:09:44.652Z,62.12
2022-10-01T01:11:01.810Z,62.21
2022-10-01T01:12:41.410Z,61.59
2022-10-01T01:14:02.039Z,61.79
2022-10-01T01:15:41.233Z,61.73
2022-10-01T01:16:51.808Z,61.90
2022-10-01T01:18:05.769Z,62.49
2022-10-01T01:19:29.077Z,62.65
2022-10-01T01:20:40.312Z,62.62
2022-10-01T01:21:48.200Z,62.72
2022-10-01T01:23:08.454Z,62.47
2022-10-01T01:24:31.841Z,62.29
2022-10-01T01:25:47.375Z,61.60
2022-10-01T01:27:16.407Z,61.90
2022-10-01T01:28:21.133Z,61.84
2022-10-01T01:29:43.957Z,62.13
2022-10-01T01:30:50.267Z,62.34
2022-10-01T01:31:58.482Z,62.05
2022-10-01T01:33:12.036Z,62.16
2022-10-01T01:34:19.883Z,62.32
2022-10-01T01:35:46.269Z,62.25
2022-10-01T01:36:56.103Z,63.21
2022-10-01T01:38:03.355Z,63.66
2022-10-01T01:39:08.487Z,63.63
2022-10-01T01:40:13.996Z,65.02
2022-10-01T01:41:17.393Z,65.11
2022-10-01T01:42:29.150Z,64.90
2022-10-01T01:43:35.176Z,64.93
2022-10-01T01:44:41.098Z,64.69
2022-10-01T01:45:43.777Z,64.17
2022-10-01T01:46:49.525Z,63.78
2022-10-01T01:47:56.128Z,63.46
2022-10-01T01:48:59.544Z,63.47
2022-10-01T01:50:03.101Z,63.07
2022-10-01T01:51:27.350Z,62.87
2022-10-01T01:52:29.753Z,63.95
2022-10-01T01:53:32.308Z,63.66
2022-10-01T01:54:35.939Z,63.41
2022-10-01T01:55:37.717Z,63.51
2022-10-01T01:56:39.572Z,63.45
2022-10-01T01:57:43.478Z,63.82
2022-10-01T01:58:45.918Z,64.09
2022-10-01T01:59:47.837Z,64.06
2022-10-01T02:00:54.439Z,63.97
2022-10-01T02:01:56.228Z,63.12
2022-10-01T02:02:59.271Z,63.39
2022-10-01T02:04:04.990Z,62.96
2022-10-01T02:05:17.568Z,62.46
2022-10-01T02:06:32.584Z,61.98
2022-10-01T02:08:12.332Z,62.61
2022-10-01T02:09:37.397Z,63.04
2022-10-01T02:11:16.698Z,63.05
2022-10-01T02:12:42.648Z,63.35
2022-10-01T02:13:56.850Z,63.26
2022-10-01T02:15:10.346Z,64.09
2022-10-01T02:16:21.936Z,63.90
2022-10-01T02:17:34.717Z,63.51
2022-10-01T02:18:44.104Z,63.53
2022-10-01T02:19:52.849Z,63.68
2022-10-01T02:21:10.572Z,63.23
2022-10-01T02:22:18.901Z,63.14
2022-10-01T02:23:28.873Z,63.26
2022-10-01T02:24:47.540Z,63.54
2022-10-01T02:25:55.617Z,64.25
2022-10-01T02:26:59.814Z,64.16
2022-10-01T02:28:10.212Z,64.09
2022-10-01T02:29:16.774Z,63.71
2022-10-01T02:30:18.786Z,63.69
2022-10-01T02:31:22.991Z,63.37
2022-10-01T02:32:26.067Z,63.31
2022-10-01T02:33:32.633Z,63.45
2022-10-01T02:34:34.516Z,63.59
2022-10-01T02:35:37.705Z,63.67
2022-10-01T02:36:41.277Z,64.02
2022-10-01T02:37:45.018Z,64.58
2022-10-01T02:38:50.335Z,64.49
2022-10-01T02:39:55.238Z,64.33
2022-10-01T02:41:02.742Z,64.54
2022-10-01T02:42:07.004Z,64.70
2022-10-01T02:43:17.821Z,64.83
2022-10-01T02:44:23.545Z,65.21
2022-10-01T02:45:27.520Z,65.22
2022-10-01T02:46:41.774Z,65.21
2022-10-01T02:47:49.818Z,65.00
2022-10-01T02:48:51.849Z,65.28
2022-10-01T02:49:54.288Z,64.90
2022-10-01T02:51:39.415Z,65.29
2022-10-01T02:52:49.289Z,65.56
2022-10-01T02:53:56.951Z,66.01
2022-10-01T02:55:10.497Z,66.16
2022-10-01T02:56:14.900Z,66.19
2022-10-01T02:57:24.967Z,66.27
2022-10-01T02:58:26.732Z,66.13
2022-10-01T02:59:28.391Z,66.48
2022-10-01T03:00:30.260Z,67.48
2022-10-01T03:01:32.170Z,67.32
2022-10-01T03:02:34.211Z,67.43
2022-10-01T03:03:35.913Z,67.98
2022-10-01T03:04:37.912Z,67.86
2022-10-01T03:05:39.602Z,67.69
2022-10-01T03:06:41.244Z,67.40
2022-10-01T03:07:43.889Z,67.71
2022-10-01T03:08:45.540Z,67.11
2022-10-01T03:09:47.314Z,65.84
2022-10-01T03:10:48.988Z,66.00
2022-10-01T03:11:51.390Z,66.32
2022-10-01T03:12:53.118Z,66.56
2022-10-01T03:13:54.819Z,66.81
2022-10-01T03:14:56.682Z,67.13
2022-10-01T03:15:58.370Z,67.33
2022-10-01T03:17:00.123Z,67.65
2022-10-01T03:18:01.802Z,67.24
2022-10-01T03:19:03.636Z,66.60
2022-10-01T03:20:06.053Z,66.43
2022-10-01T03:21:07.764Z,65.98
2022-10-01T03:22:13.769Z,66.17
2022-10-01T03:23:15.436Z,66.36
2022-10-01T03:24:17.123Z,66.45
2022-10-01T03:25:19.024Z,66.92
2022-10-01T03:26:20.850Z,67.12
2022-10-01T03:27:23.246Z,67.14
2022-10-01T03:28:24.988Z,66.47
2022-10-01T03:29:27.205Z,65.51
2022-10-01T03:30:30.433Z,65.43
2022-10-01T03:31:33.230Z,64.77
2022-10-01T03:32:35.229Z,65.20
2022-10-01T03:33:37.325Z,65.09
2022-10-01T03:34:39.090Z,65.14
2022-10-01T03:35:40.774Z,65.30
2022-10-01T03:36:42.594Z,65.57
2022-10-01T03:37:44.339Z,65.38
2022-10-01T03:38:48.339Z,64.99
2022-10-01T03:39:50.075Z,65.27
2022-10-01T03:40:51.729Z,65.03
2022-10-01T03:41:53.477Z,65.32
2022-10-01T03:42:55.146Z,64.73
2022-10-01T03:44:00.361Z,65.16
2022-10-01T03:45:02.403Z,64.70
2022-10-01T03:46:04.177Z,64.78
2022-10-01T03:47:06.021Z,64.82
2022-10-01T03:48:07.751Z,64.87
2022-10-01T03:49:10.858Z,64.51
2022-10-01T03:50:12.511Z,64.12
2022-10-01T03:51:19.123Z,64.22
2022-10-01T03:52:21.571Z,64.47
2022-10-01T03:53:24.718Z,64.20
2022-10-01T03:54:26.571Z,64.44
2022-10-01T03:55:28.559Z,63.96
2022-10-01T03:56:30.707Z,63.94
2022-10-01T03:57:32.366Z,63.52
2022-10-01T03:58:34.077Z,63.17
2022-10-01T03:59:36.272Z,63.21
2022-10-01T04:00:38.031Z,62.90
2022-10-01T04:01:39.971Z,62.25
2022-10-01T04:02:41.817Z,62.19
2022-10-01T04:03:44.069Z,62.21
2022-10-01T04:04:45.719Z,62.60
2022-10-01T04:05:47.701Z,63.25
2022-10-01T04:06:49.464Z,63.51
2022-10-01T04:07:51.198Z,63.16
2022-10-01T04:08:52.894Z,63.33
2022-10-01T04:09:54.568Z,62.08
2022-10-01T04:10:56.283Z,61.46
2022-10-01T04:11:58.039Z,61.26
2022-10-01T04:12:59.801Z,61.50
2022-10-01T04:14:01.648Z,61.46
2022-10-01T04:15:03.494Z,61.52
2022-10-01T04:16:06.934Z,61.76
2022-10-01T04:17:08.741Z,61.82
2022-10-01T04:18:11.007Z,62.51
2022-10-01T04:19:12.671Z,61.50
2022-10-01T04:20:14.973Z,61.47
2022-10-01T04:21:16.954Z,61.33
2022-10-01T04:22:18.973Z,61.43
2022-10-01T04:23:20.716Z,61.81
2022-10-01T04:24:22.414Z,61.70
2022-10-01T04:25:24.097Z,60.88
2022-10-01T04:26:25.761Z,60.10
2022-10-01T04:27:27.401Z,60.23
2022-10-01T04:28:30.345Z,60.26
2022-10-01T04:29:33.261Z,60.38
2022-10-01T04:30:39.769Z,60.61
2022-10-01T04:31:41.476Z,61.31
2022-10-01T04:32:43.168Z,61.57
2022-10-01T04:33:45.476Z,61.41
2022-10-01T04:34:53.301Z,61.59
2022-10-01T04:35:55.023Z,61.78
2022-10-01T04:36:56.670Z,61.88
2022-10-01T04:38:03.874Z,62.03
2022-10-01T04:39:05.560Z,62.02
2022-10-01T04:40:08.078Z,61.24
2022-10-01T04:41:09.822Z,61.00
2022-10-01T04:42:13.434Z,60.97
2022-10-01T04:43:15.084Z,60.64
2022-10-01T04:44:16.726Z,60.68
2022-10-01T04:45:18.608Z,60.40
2022-10-01T04:46:20.391Z,60.49
2022-10-01T04:47:22.128Z,60.65
2022-10-01T04:48:24.311Z,60.32
2022-10-01T04:49:25.970Z,59.62
2022-10-01T04:50:28.062Z,59.56
2022-10-01T04:51:29.735Z,59.33
2022-10-01T04:52:31.423Z,59.64
2022-10-01T04:53:33.060Z,59.55
2022-10-01T04:54:34.821Z,59.75
2022-10-01T04:55:36.524Z,59.94
2022-10-01T04:56:38.232Z,59.62
2022-10-01T04:57:39.998Z,60.41
2022-10-01T04:58:42.045Z,60.96
2022-10-01T04:59:43.802Z,61.00
2022-10-01T05:00:45.554Z,61.16
2022-10-01T05:01:47.389Z,60.84
2022-10-01T05:02:50.484Z,61.25
2022-10-01T05:03:52.443Z,61.56
2022-10-01T05:04:54.625Z,61.88
2022-10-01T05:05:56.279Z,60.50
2022-10-01T05:06:57.931Z,59.47
2022-10-01T05:07:59.682Z,59.25
2022-10-01T05:09:01.416Z,58.95
2022-10-01T05:10:03.185Z,59.01
2022-10-01T05:11:04.980Z,58.93
2022-10-01T05:12:08.189Z,58.79
2022-10-01T05:13:11.210Z,58.85
2022-10-01T05:14:15.263Z,58.87
2022-10-01T05:15:18.374Z,59.75
2022-10-01T05:16:20.152Z,59.78
2022-10-01T05:17:22.589Z,59.62
2022-10-01T05:18:24.370Z,59.97
2022-10-01T05:19:29.110Z,60.60
2022-10-01T05:20:30.849Z,59.96
2022-10-01T05:21:32.682Z,59.97
2022-10-01T05:22:34.599Z,59.03
2022-10-01T05:23:36.274Z,58.94
2022-10-01T05:24:38.342Z,58.71
2022-10-01T05:25:40.045Z,59.70
2022-10-01T05:26:41.709Z,59.96
2022-10-01T05:27:43.476Z,60.01
2022-10-01T05:28:45.355Z,59.58
2022-10-01T05:29:47.124Z,59.33
2022-10-01T05:30:48.807Z,59.25
2022-10-01T05:31:50.553Z,60.25
2022-10-01T05:32:57.367Z,60.40
2022-10-01T05:33:59.041Z,60.05
2022-10-01T05:35:00.824Z,60.54
2022-10-01T05:36:05.327Z,60.25
2022-10-01T05:37:07.421Z,60.78
2022-10-01T05:38:09.077Z,60.88
2022-10-01T05:39:11.942Z,60.65
2022-10-01T05:40:13.656Z,59.86
2022-10-01T05:41:16.331Z,59.27
2022-10-01T05:42:18.004Z,58.91
2022-10-01T05:43:19.690Z,58.73
2022-10-01T05:44:25.292Z,57.41
2022-10-01T05:45:28.643Z,56.95
2022-10-01T05:46:31.720Z,57.61
2022-10-01T05:47:33.381Z,57.00
2022-10-01T05:48:37.042Z,54.33
2022-10-01T05:49:42.675Z,54.70
2022-10-01T05:50:44.386Z,55.03
2022-10-01T05:51:46.453Z,55.15
2022-10-01T05:52:51.272Z,55.39
2022-10-01T05:53:59.162Z,55.27
2022-10-01T05:55:00.857Z,54.84
2022-10-01T05:56:03.278Z,54.56
2022-10-01T05:57:05.790Z,54.65
2022-10-01T05:58:10.606Z,54.78
2022-10-01T05:59:12.319Z,54.29
2022-10-01T06:00:14.837Z,53.78
2022-10-01T06:01:16.518Z,53.18
2022-10-01T06:02:18.288Z,52.85
2022-10-01T06:03:20.036Z,52.57
2022-10-01T06:04:21.692Z,52.11
2022-10-01T06:05:24.219Z,52.29
2022-10-01T06:06:27.716Z,51.60
2022-10-01T06:07:31.690Z,50.64
2022-10-01T06:08:37.811Z,50.56
2022-10-01T06:09:39.507Z,50.30
2022-10-01T06:10:41.203Z,49.70
2022-10-01T06:11:42.930Z,48.49
2022-10-01T06:12:44.674Z,48.39
2022-10-01T06:13:46.922Z,47.82
2022-10-01T06:14:48.605Z,47.40
2022-10-01T06:15:52.803Z,48.45
2022-10-01T06:16:54.796Z,48.81
2022-10-01T06:17:56.628Z,48.22
2022-10-01T06:18:58.609Z,47.76
2022-10-01T06:20:00.507Z,47.45
2022-10-01T06:21:02.175Z,46.91
2022-10-01T06:22:03.830Z,46.60
2022-10-01T06:23:10.129Z,46.13
2022-10-01T06:24:11.937Z,45.66
2022-10-01T06:25:15.753Z,44.33
2022-10-01T06:26:18.445Z,42.97
2022-10-01T06:27:20.147Z,42.25
2022-10-01T06:28:22.018Z,41.86
2022-10-01T06:29:24.154Z,40.59
2022-10-01T06:30:27.581Z,41.60
2022-10-01T06:31:29.784Z,41.20
2022-10-01T06:32:34.904Z,40.06
2022-10-01T06:33:36.982Z,40.00
2022-10-01T06:34:38.618Z,39.38
2022-10-01T06:35:43.456Z,37.92
2022-10-01T06:36:45.302Z,35.75
2022-10-01T06:37:47.261Z,35.05
2022-10-01T06:38:49.556Z,35.87
2022-10-01T06:39:51.234Z,37.59
2022-10-01T06:41:00.969Z,37.53
2022-10-01T06:42:02.652Z,38.22
2022-10-01T06:43:07.980Z,35.96
2022-10-01T06:44:10.629Z,36.91
2022-10-01T06:45:12.312Z,36.54
2022-10-01T06:46:14.072Z,37.07
2022-10-01T06:47:15.781Z,36.78
2022-10-01T06:48:20.093Z,34.17
2022-10-01T06:49:22.342Z,33.72
2022-10-01T06:50:25.026Z,33.21
2022-10-01T06:51:45.294Z,33.52
2022-10-01T06:52:50.068Z,33.29
2022-10-01T06:53:51.719Z,33.41
2022-10-01T06:54:53.370Z,33.41
2022-10-01T06:55:55.959Z,33.30
2022-10-01T06:56:57.622Z,33.37
2022-10-01T06:58:12.697Z,34.22
2022-10-01T06:59:14.397Z,34.91
2022-10-01T07:00:16.252Z,34.82
2022-10-01T07:01:21.100Z,36.12
2022-10-01T07:02:28.917Z,36.99
2022-10-01T07:03:31.499Z,37.12
2022-10-01T07:04:33.226Z,35.79
2022-10-01T07:05:34.872Z,36.28
2022-10-01T07:06:36.548Z,34.86
2022-10-01T07:07:39.074Z,34.90
2022-10-01T07:08:40.756Z,34.95
2022-10-01T07:09:42.438Z,38.06
2022-10-01T07:10:44.530Z,38.10
2022-10-01T07:11:46.179Z,37.14
2022-10-01T07:12:51.812Z,37.15
2022-10-01T07:13:54.704Z,36.62
2022-10-01T07:14:56.625Z,35.85
2022-10-01T07:15:58.363Z,35.52
2022-10-01T07:17:00.063Z,34.88
2022-10-01T07:18:02.047Z,34.21
2022-10-01T07:19:03.727Z,32.91
2022-10-01T07:20:06.001Z,32.54
2022-10-01T07:21:07.803Z,32.15
2022-10-01T07:22:09.688Z,31.64
2022-10-01T07:23:13.706Z,30.47
2022-10-01T07:24:15.364Z,31.03
2022-10-01T07:25:17.160Z,28.77
2022-10-01T07:26:19.058Z,29.00
2022-10-01T07:27:20.941Z,29.09
2022-10-01T07:28:25.770Z,27.78
2022-10-01T07:29:27.618Z,27.71
2022-10-01T07:30:29.587Z,27.80
2022-10-01T07:31:31.377Z,27.89
2022-10-01T07:32:35.401Z,27.63
2022-10-01T07:33:39.957Z,26.72
2022-10-01T07:34:41.636Z,26.87
2022-10-01T07:35:43.318Z,26.64
2022-10-01T07:36:45.499Z,26.09
2022-10-01T07:37:48.783Z,26.82
2022-10-01T07:38:51.363Z,27.35
2022-10-01T07:39:53.497Z,26.64
2022-10-01T07:40:55.183Z,25.44
2022-10-01T07:41:57.233Z,24.70
2022-10-01T07:42:58.932Z,24.85
2022-10-01T07:44:03.531Z,24.81
2022-10-01T07:45:06.820Z,25.11
2022-10-01T07:46:08.645Z,24.65
2022-10-01T07:47:10.436Z,24.07
2022-10-01T07:48:12.099Z,23.06
2022-10-01T07:49:14.124Z,22.72
2022-10-01T07:50:16.186Z,23.05
2022-10-01T07:51:17.872Z,21.85
2022-10-01T07:52:19.548Z,22.96
2022-10-01T07:53:23.554Z,24.58
2022-10-01T07:54:26.230Z,23.41
2022-10-01T07:55:31.789Z,23.52
2022-10-01T07:56:33.462Z,23.17
2022-10-01T07:57:35.207Z,22.60
2022-10-01T07:58:37.005Z,22.15
2022-10-01T07:59:41.013Z,22.83
2022-10-01T08:00:43.629Z,22.98
2022-10-01T08:01:49.855Z,21.40
2022-10-01T08:02:53.759Z,21.22
2022-10-01T08:03:55.468Z,22.48
2022-10-01T08:05:15.377Z,22.18
2022-10-01T08:06:22.015Z,22.46
2022-10-01T08:07:27.043Z,22.41
2022-10-01T08:08:28.756Z,20.65
2022-10-01T08:09:30.422Z,21.01
2022-10-01T08:10:35.550Z,21.55
2022-10-01T08:11:38.205Z,21.89
2022-10-01T08:12:40.180Z,20.61
2022-10-01T08:13:41.830Z,20.90
2022-10-01T08:14:43.859Z,20.68
2022-10-01T08:15:50.646Z,20.56
2022-10-01T08:16:55.970Z,21.25
2022-10-01T08:18:01.336Z,21.17
2022-10-01T08:19:03.049Z,21.25
2022-10-01T08:20:05.991Z,20.35
2022-10-01T08:21:08.142Z,19.99
2022-10-01T08:22:09.802Z,20.36
2022-10-01T08:23:17.233Z,19.82
2022-10-01T08:24:20.185Z,20.20
2022-10-01T08:25:21.939Z,19.60
2022-10-01T08:26:23.610Z,19.11
2022-10-01T08:27:26.478Z,19.26
2022-10-01T08:28:28.184Z,19.50
2022-10-01T08:29:29.943Z,19.22
2022-10-01T08:30:31.670Z,19.18
2022-10-01T08:31:33.610Z,20.81
2022-10-01T08:32:35.629Z,19.39
2022-10-01T08:33:38.528Z,20.90
2022-10-01T08:34:40.175Z,20.22
2022-10-01T08:35:43.747Z,20.65
2022-10-01T08:36:45.919Z,20.58
2022-10-01T08:37:47.644Z,21.71
2022-10-01T08:38:49.557Z,21.54
2022-10-01T08:39:51.278Z,21.23
2022-10-01T08:40:53.016Z,20.88
2022-10-01T08:42:03.543Z,20.14
2022-10-01T08:43:10.769Z,21.92
2022-10-01T08:44:21.861Z,22.42
2022-10-01T08:45:43.309Z,22.23
2022-10-01T08:46:46.337Z,23.36
2022-10-01T08:47:57.939Z,22.51
2022-10-01T08:49:25.203Z,22.73
2022-10-01T08:50:45.262Z,22.70
2022-10-01T08:51:58.620Z,23.38
2022-10-01T08:53:04.657Z,22.83
2022-10-01T08:54:24.309Z,21.85
2022-10-01T08:55:29.030Z,22.64
2022-10-01T08:56:44.480Z,22.10
2022-10-01T08:58:01.835Z,22.38
2022-10-01T08:59:18.799Z,22.54
2022-10-01T09:00:21.255Z,23.16
2022-10-01T09:01:23.025Z,23.82
2022-10-01T09:02:38.445Z,24.46
2022-10-01T09:03:40.977Z,25.18
2022-10-01T09:04:42.682Z,24.42
2022-10-01T09:05:51.506Z,23.89
2022-10-01T09:07:04.379Z,24.28
2022-10-01T09:08:16.550Z,25.06
2022-10-01T09:09:35.787Z,24.12
2022-10-01T09:10:51.645Z,24.80
2022-10-01T09:12:23.657Z,24.10
2022-10-01T09:13:31.016Z,23.85
2022-10-01T09:14:38.601Z,25.53
2022-10-01T09:16:13.791Z,25.71
2022-10-01T09:17:29.339Z,25.33
2022-10-01T09:18:55.751Z,25.49
2022-10-01T09:20:00.288Z,27.04
2022-10-01T09:21:06.301Z,26.70
2022-10-01T09:22:46.894Z,25.84
2022-10-01T09:24:17.194Z,27.47
2022-10-01T09:25:27.326Z,28.34
2022-10-01T09:26:29.126Z,27.38
2022-10-01T09:27:31.981Z,27.58
2022-10-01T09:28:35.634Z,26.96
2022-10-01T09:29:44.649Z,27.04
2022-10-01T09:30:56.952Z,28.50
2022-10-01T09:32:01.360Z,27.06
2022-10-01T09:33:11.117Z,28.31
2022-10-01T09:34:15.228Z,29.69
2022-10-01T09:35:49.009Z,28.95
2022-10-01T09:37:04.857Z,28.27
2022-10-01T09:38:17.595Z,28.55
2022-10-01T09:39:22.684Z,28.42
2022-10-01T09:40:35.700Z,29.37
2022-10-01T09:41:37.636Z,28.73
2022-10-01T09:42:39.413Z,29.44
2022-10-01T09:43:43.338Z,30.08
2022-10-01T09:44:47.352Z,29.82
2022-10-01T09:45:51.609Z,29.15
2022-10-01T09:46:54.236Z,28.61
2022-10-01T09:48:04.759Z,29.46
2022-10-01T09:49:35.122Z,29.26
2022-10-01T09:50:45.287Z,30.15
2022-10-01T09:51:52.350Z,32.34
2022-10-01T09:52:54.500Z,30.51
2022-10-01T09:54:18.554Z,30.50
2022-10-01T09:55:29.945Z,30.23
2022-10-01T09:56:39.995Z,31.09
2022-10-01T09:57:48.076Z,31.42
2022-10-01T09:58:55.126Z,31.19
2022-10-01T10:00:10.296Z,30.99
2022-10-01T10:01:29.313Z,32.19
2022-10-01T10:02:48.505Z,31.09
2022-10-01T10:03:56.401Z,30.29
2022-10-01T10:05:05.431Z,30.83
2022-10-01T10:06:07.155Z,32.21
2022-10-01T10:07:17.417Z,32.19
2022-10-01T10:08:30.271Z,32.70
2022-10-01T10:09:33.962Z,32.00
2022-10-01T10:10:39.622Z,32.52
2022-10-01T10:11:43.037Z,32.91
2022-10-01T10:12:45.947Z,31.64
2022-10-01T10:13:54.083Z,32.11
2022-10-01T10:14:59.052Z,32.01
2022-10-01T10:16:10.790Z,31.68
2022-10-01T10:17:16.891Z,31.96
2022-10-01T10:18:30.432Z,32.96
2022-10-01T10:19:34.123Z,33.45
2022-10-01T10:20:40.584Z,32.83
2022-10-01T10:21:52.252Z,31.51
2022-10-01T10:22:54.465Z,32.43
2022-10-01T10:24:01.871Z,32.78
2022-10-01T10:25:18.268Z,32.93
2022-10-01T10:26:35.007Z,32.04
2022-10-01T10:27:36.979Z,33.28
2022-10-01T10:28:44.033Z,33.29
2022-10-01T10:29:46.444Z,33.76
2022-10-01T10:30:48.630Z,33.04
2022-10-01T10:31:51.685Z,32.70
2022-10-01T10:33:02.251Z,32.31
2022-10-01T10:34:15.054Z,32.40
2022-10-01T10:35:25.823Z,33.05
2022-10-01T10:36:30.153Z,32.88
2022-10-01T10:37:37.109Z,32.63
2022-10-01T10:38:38.901Z,33.40
2022-10-01T10:39:43.329Z,32.94
2022-10-01T10:40:46.059Z,32.85
2022-10-01T10:41:50.166Z,33.69
2022-10-01T10:42:54.246Z,34.03
2022-10-01T10:44:03.862Z,34.31
2022-10-01T10:45:17.577Z,33.95
2022-10-01T10:46:33.339Z,33.96
2022-10-01T10:47:46.319Z,34.54
2022-10-01T10:48:58.786Z,34.69
2022-10-01T10:50:05.010Z,35.53
2022-10-01T10:51:06.748Z,35.61
2022-10-01T10:52:29.869Z,36.07
2022-10-01T10:53:44.110Z,36.92
2022-10-01T10:54:48.910Z,36.48
2022-10-01T10:56:17.809Z,36.38
2022-10-01T10:57:27.923Z,36.80
2022-10-01T10:58:45.271Z,37.13
2022-10-01T11:00:04.862Z,36.21
2022-10-01T11:01:13.711Z,36.77
2022-10-01T11:02:19.961Z,36.98
2022-10-01T11:03:25.981Z,36.72
2022-10-01T11:04:36.908Z,36.87
2022-10-01T11:05:42.203Z,37.54
2022-10-01T11:06:53.333Z,38.01
2022-10-01T11:07:58.329Z,37.59
2022-10-01T11:09:07.347Z,37.43
2022-10-01T11:10:35.009Z,37.92
2022-10-01T11:11:36.641Z,37.41
2022-10-01T11:12:41.101Z,37.74
2022-10-01T11:14:03.354Z,38.49
2022-10-01T11:15:23.090Z,39.21
2022-10-01T11:16:44.932Z,39.54
2022-10-01T11:18:23.574Z,41.10
2022-10-01T11:19:52.643Z,43.07
2022-10-01T11:21:20.099Z,42.78
2022-10-01T11:22:50.244Z,42.42
2022-10-01T11:23:57.707Z,42.89
2022-10-01T11:25:11.386Z,43.66
2022-10-01T11:26:37.589Z,43.04
2022-10-01T11:27:50.789Z,43.05
2022-10-01T11:29:02.622Z,43.02
2022-10-01T11:30:13.899Z,42.68
2022-10-01T11:31:29.637Z,44.09
2022-10-01T11:32:39.433Z,42.79
2022-10-01T11:34:23.480Z,43.14
2022-10-01T11:35:47.807Z,41.90
2022-10-01T11:37:00.441Z,41.60
2022-10-01T11:38:39.961Z,42.40
2022-10-01T11:39:45.027Z,43.16
2022-10-01T11:40:51.333Z,42.90
2022-10-01T11:42:02.630Z,41.98
2022-10-01T11:43:17.040Z,41.87
2022-10-01T11:44:35.267Z,41.06
2022-10-01T11:45:43.617Z,41.74
2022-10-01T11:47:07.334Z,42.13
2022-10-01T11:49:02.344Z,42.53
2022-10-01T11:50:06.168Z,42.68
2022-10-01T11:51:15.740Z,40.47
2022-10-01T11:52:23.817Z,40.91
2022-10-01T11:53:33.498Z,41.36
2022-10-01T11:54:39.891Z,40.84
2022-10-01T11:56:04.761Z,40.30
2022-10-01T11:57:32.860Z,40.36
2022-10-01T11:58:53.141Z,39.87
2022-10-01T12:00:00.791Z,40.50
2022-10-01T12:01:14.365Z,40.68
2022-10-01T12:02:36.156Z,40.68
2022-10-01T12:04:17.502Z,41.48
2022-10-01T12:05:27.634Z,40.60
2022-10-01T12:06:34.118Z,39.98
2022-10-01T12:07:45.967Z,39.98
2022-10-01T12:08:54.976Z,39.20
2022-10-01T12:10:17.235Z,39.45
2022-10-01T12:11:34.890Z,40.88
2022-10-01T12:12:47.414Z,39.85
2022-10-01T12:13:58.463Z,40.13
2022-10-01T12:15:06.908Z,39.95
2022-10-01T12:16:16.185Z,39.54
2022-10-01T12:17:27.586Z,38.86
2022-10-01T12:18:44.115Z,38.39
2022-10-01T12:19:51.544Z,37.35
2022-10-01T12:20:57.089Z,37.89
2022-10-01T12:22:13.701Z,37.20
2022-10-01T12:23:20.252Z,37.82
2022-10-01T12:24:30.862Z,38.69
2022-10-01T12:25:49.898Z,37.70
2022-10-01T12:27:13.076Z,37.90
2022-10-01T12:28:24.114Z,38.31
2022-10-01T12:29:43.104Z,38.69
2022-10-01T12:31:43.644Z,38.64
2022-10-01T12:33:15.413Z,37.80
2022-10-01T12:34:37.249Z,38.41
2022-10-01T12:35:57.758Z,38.21
2022-10-01T12:37:28.589Z,38.36
2022-10-01T12:38:57.662Z,39.13
2022-10-01T12:40:21.370Z,39.62
2022-10-01T12:41:46.561Z,39.37
2022-10-01T12:43:46.307Z,39.37
2022-10-01T12:44:50.593Z,39.42
2022-10-01T12:46:09.312Z,40.81
2022-10-01T12:47:38.430Z,40.76
2022-10-01T12:48:40.039Z,40.63
2022-10-01T12:49:56.470Z,40.90
2022-10-01T12:51:22.578Z,41.84
2022-10-01T12:52:50.589Z,41.19
2022-10-01T12:54:14.402Z,41.60
2022-10-01T12:55:29.532Z,41.37
2022-10-01T12:56:37.968Z,41.23
2022-10-01T12:58:12.831Z,40.59
2022-10-01T12:59:17.230Z,41.11
2022-10-01T13:00:22.525Z,40.72
2022-10-01T13:01:39.351Z,40.57
2022-10-01T13:02:53.242Z,41.60
2022-10-01T13:04:35.098Z,40.71
2022-10-01T13:05:54.988Z,40.87
2022-10-01T13:07:26.746Z,41.68
2022-10-01T13:08:47.998Z,41.23
2022-10-01T13:10:08.164Z,40.97
2022-10-01T13:11:12.581Z,41.51
2022-10-01T13:12:36.965Z,41.45
2022-10-01T13:13:39.266Z,41.84
2022-10-01T13:14:44.552Z,41.28
2022-10-01T13:15:49.658Z,42.60
2022-10-01T13:16:54.581Z,40.90
2022-10-01T13:18:09.440Z,40.49
2022-10-01T13:19:21.689Z,40.16
2022-10-01T13:20:41.243Z,40.22
2022-10-01T13:22:19.480Z,40.82
2022-10-01T13:23:41.645Z,39.67
2022-10-01T13:25:08.064Z,39.80
2022-10-01T13:26:12.954Z,40.21
2022-10-01T13:27:24.320Z,40.58
2022-10-01T13:28:48.883Z,40.93
2022-10-01T13:30:04.250Z,39.94
2022-10-01T13:31:15.173Z,40.21
2022-10-01T13:32:26.001Z,40.04
2022-10-01T13:33:32.248Z,39.80
2022-10-01T13:34:43.144Z,38.92
2022-10-01T13:36:13.492Z,39.18
2022-10-01T13:37:18.393Z,39.06
2022-10-01T13:38:29.409Z,38.87
2022-10-01T13:39:36.643Z,39.31
2022-10-01T13:40:41.614Z,39.12
2022-10-01T13:41:43.316Z,38.77
2022-10-01T13:42:47.404Z,39.23
2022-10-01T13:43:56.932Z,39.19
2022-10-01T13:45:21.870Z,39.22
2022-10-01T13:46:31.391Z,39.20
2022-10-01T13:47:41.089Z,38.60
2022-10-01T13:48:49.397Z,38.38
2022-10-01T13:50:03.798Z,38.29
2022-10-01T13:51:12.779Z,39.12
2022-10-01T13:52:21.768Z,38.19
2022-10-01T13:53:25.891Z,38.92
2022-10-01T13:54:30.636Z,38.78
2022-10-01T13:55:32.837Z,37.69
2022-10-01T13:56:37.442Z,37.79
2022-10-01T13:57:39.709Z,38.05
2022-10-01T13:58:43.834Z,37.48
2022-10-01T13:59:45.581Z,38.35
2022-10-01T14:00:53.602Z,38.09
2022-10-01T14:01:55.447Z,37.90
2022-10-01T14:03:23.659Z,37.86
2022-10-01T14:04:42.166Z,37.83
2022-10-01T14:05:44.104Z,38.05
2022-10-01T14:07:19.468Z,38.92
2022-10-01T14:08:33.578Z,38.22
2022-10-01T14:09:41.194Z,38.66
2022-10-01T14:11:15.455Z,37.94
2022-10-01T14:12:43.648Z,38.55
2022-10-01T14:14:07.153Z,38.47
2022-10-01T14:15:57.361Z,38.43
2022-10-01T14:17:00.460Z,38.84
2022-10-01T14:18:09.402Z,38.30
2022-10-01T14:19:18.808Z,38.21
2022-10-01T14:20:34.643Z,38.03
2022-10-01T14:22:01.463Z,38.54
2022-10-01T14:23:14.129Z,38.54
2022-10-01T14:24:31.021Z,38.84
2022-10-01T14:26:12.175Z,38.30
2022-10-01T14:27:32.367Z,38.56
2022-10-01T14:29:15.744Z,39.28
2022-10-01T14:30:22.809Z,38.13
2022-10-01T14:31:31.305Z,38.89
2022-10-01T14:33:02.826Z,38.92
2022-10-01T14:34:04.435Z,38.52
2022-10-01T14:35:21.277Z,39.34
2022-10-01T14:36:35.388Z,37.79